Time;durP1;ratioP1;P1;durP2;ratioP2;P2;SDS_P1;SDS_P2;PMS_P1;PMS_P2;Temp;Humidity;BMP_temperature;BMP_pressure;BME280_temperature;BME280_humidity;BME280_pressure;Samples;Min_cycle;Max_cycle;Signal;HPM_P1;HPM_P2
2022/07/17 00:00:16;;;;;;;5.27;4.77;;;18.30;54.10;;;;;;5078153;28;20475;-45
2022/07/17 00:02:43;;;;;;;4.10;3.70;;;18.20;54.20;;;;;;5078030;28;20432;-44
2022/07/17 00:05:09;;;;;;;5.50;4.13;;;18.20;54.30;;;;;;5075780;28;20427;-45
2022/07/17 00:07:35;;;;;;;5.80;4.80;;;18.20;54.50;;;;;;5074270;28;20468;-44
2022/07/17 00:10:01;;;;;;;4.97;4.50;;;18.20;54.60;;;;;;5075944;28;20829;-44
2022/07/17 00:12:27;;;;;;;4.93;4.50;;;18.20;54.90;;;;;;5075735;28;20189;-44
2022/07/17 00:14:52;;;;;;;4.80;4.40;;;18.20;55.00;;;;;;5076744;28;20455;-43
2022/07/17 00:17:18;;;;;;;5.70;4.33;;;18.20;55.20;;;;;;5075797;28;20448;-44
2022/07/17 00:19:44;;;;;;;5.33;4.83;;;18.10;55.30;;;;;;5076707;28;20470;-43
2022/07/17 00:22:10;;;;;;;5.03;4.60;;;18.10;55.40;;;;;;5074959;28;20211;-42
2022/07/17 00:24:35;;;;;;;4.80;4.30;;;18.10;55.50;;;;;;5076296;28;20185;-45
2022/07/17 00:27:01;;;;;;;5.30;4.80;;;18.10;55.80;;;;;;5075274;28;20220;-44
2022/07/17 00:29:28;;;;;;;5.43;4.63;;;18.10;55.90;;;;;;5074885;28;20239;-44
2022/07/17 00:31:54;;;;;;;7.90;5.57;;;18.00;56.00;;;;;;5075966;28;20239;-44
2022/07/17 00:34:19;;;;;;;5.70;5.20;;;18.00;56.30;;;;;;5076313;28;20442;-46
2022/07/17 00:36:45;;;;;;;5.30;4.80;;;17.90;56.50;;;;;;5075591;28;20536;-43
2022/07/17 00:39:10;;;;;;;5.63;4.13;;;17.90;56.90;;;;;;5074767;28;20660;-44
2022/07/17 00:41:36;;;;;;;4.90;4.00;;;17.90;57.10;;;;;;5074701;28;20273;-47
2022/07/17 00:44:08;;;;;;;4.80;4.20;;;17.80;57.20;;;;;;5076028;28;20181;-46
2022/07/17 00:46:34;;;;;;;5.20;4.80;;;17.80;57.20;;;;;;5076548;28;20183;-45
2022/07/17 00:49:00;;;;;;;5.67;4.50;;;17.80;57.50;;;;;;5074435;28;20468;-43
2022/07/17 00:51:26;;;;;;;5.20;4.70;;;17.80;57.70;;;;;;5075912;28;20412;-43
2022/07/17 00:53:52;;;;;;;4.50;4.10;;;17.70;57.80;;;;;;5077234;28;20819;-41
2022/07/17 00:56:18;;;;;;;4.80;4.27;;;17.70;57.80;;;;;;5077493;28;20200;-42
2022/07/17 00:58:44;;;;;;;5.10;4.70;;;17.70;57.80;;;;;;5074666;28;20871;-45
2022/07/17 01:01:10;;;;;;;4.77;4.37;;;17.70;57.90;;;;;;5076397;28;20430;-45
2022/07/17 01:03:36;;;;;;;6.13;5.17;;;17.70;58.10;;;;;;5075951;28;20486;-46
2022/07/17 01:06:03;;;;;;;5.20;4.70;;;17.70;58.40;;;;;;5076585;28;20429;-46
2022/07/17 01:08:28;;;;;;;5.30;4.77;;;17.70;58.50;;;;;;5077305;28;20422;-44
2022/07/17 01:10:54;;;;;;;4.60;4.20;;;17.60;58.60;;;;;;5076705;28;20428;-47
2022/07/17 01:13:20;;;;;;;4.73;4.33;;;17.60;58.80;;;;;;5077591;28;20216;-45
2022/07/17 01:15:46;;;;;;;6.57;4.17;;;17.50;59.00;;;;;;5077479;28;20417;-44
2022/07/17 01:21:41;;;;;;;4.70;4.30;;;17.50;59.50;;;;;;5077434;28;20727;-45
2022/07/17 01:24:07;;;;;;;5.53;5.10;;;17.40;59.70;;;;;;5076920;28;20493;-44
2022/07/17 01:26:33;;;;;;;5.00;4.50;;;17.40;59.90;;;;;;5078166;28;20425;-46
2022/07/17 01:28:58;;;;;;;4.40;4.00;;;17.40;60.10;;;;;;5077780;28;20174;-44
2022/07/17 01:31:24;;;;;;;5.53;4.63;;;17.30;60.10;;;;;;5074617;28;20248;-43
2022/07/17 01:33:50;;;;;;;5.17;4.77;;;17.30;60.60;;;;;;5075746;28;20183;-46
2022/07/17 01:36:16;;;;;;;5.73;5.13;;;17.30;60.90;;;;;;5075458;28;20180;-47
2022/07/17 01:38:41;;;;;;;5.43;4.90;;;17.30;61.40;;;;;;5075656;28;20546;-48
2022/07/17 01:41:07;;;;;;;4.90;4.50;;;17.30;61.50;;;;;;5075174;28;20185;-45
2022/07/17 01:43:32;;;;;;;5.23;4.73;;;17.30;61.70;;;;;;5074917;28;20184;-46
2022/07/17 01:45:58;;;;;;;4.90;4.50;;;17.20;61.60;;;;;;5076511;28;20171;-46
2022/07/17 01:48:25;;;;;;;4.90;4.50;;;17.20;62.00;;;;;;5076421;28;20560;-43
2022/07/17 01:50:51;;;;;;;4.93;4.53;;;17.20;62.20;;;;;;5076349;28;20561;-43
2022/07/17 01:53:17;;;;;;;5.23;4.73;;;17.10;62.40;;;;;;5075876;28;20688;-46
2022/07/17 01:55:43;;;;;;;5.20;4.70;;;17.10;62.90;;;;;;5077046;28;20431;-42
2022/07/17 01:58:15;;;;;;;5.70;3.90;;;17.10;63.30;;;;;;5076196;28;20190;-43
2022/07/17 02:00:41;;;;;;;5.30;4.77;;;17.00;63.50;;;;;;5077474;28;20162;-46
2022/07/17 02:03:06;;;;;;;5.23;4.73;;;17.00;63.60;;;;;;5077173;28;20858;-45
2022/07/17 02:05:32;;;;;;;5.60;5.10;;;17.00;63.80;;;;;;5075759;28;20613;-46
2022/07/17 02:07:57;;;;;;;5.00;4.50;;;17.00;64.20;;;;;;5076794;28;20488;-43
2022/07/17 02:10:23;;;;;;;4.57;4.20;;;17.00;64.40;;;;;;5074985;28;20205;-47
2022/07/17 02:12:49;;;;;;;11.43;4.80;;;16.90;64.60;;;;;;5074971;28;20250;-45
2022/07/17 02:15:15;;;;;;;5.20;4.80;;;16.90;64.90;;;;;;5075925;28;20751;-44
2022/07/17 02:17:41;;;;;;;6.03;5.63;;;16.90;65.20;;;;;;5075645;28;20572;-43
2022/07/17 02:20:08;;;;;;;6.20;5.47;;;16.90;65.20;;;;;;5075951;28;20488;-45
2022/07/17 02:22:35;;;;;;;4.77;4.37;;;16.90;65.40;;;;;;5075226;28;20767;-44
2022/07/17 02:25:00;;;;;;;5.33;4.50;;;16.90;65.80;;;;;;5077304;28;20816;-43
2022/07/17 02:27:26;;;;;;;5.67;5.17;;;16.90;65.90;;;;;;5077122;28;20536;-42
2022/07/17 02:29:52;;;;;;;5.37;4.83;;;16.80;66.20;;;;;;5076834;28;20175;-46
2022/07/17 02:32:17;;;;;;;5.10;4.70;;;16.80;66.30;;;;;;5076375;28;20241;-46
2022/07/17 02:34:43;;;;;;;6.00;5.50;;;16.80;66.80;;;;;;5077051;28;20176;-45
2022/07/17 02:37:08;;;;;;;5.40;5.00;;;16.80;67.10;;;;;;5077092;28;20494;-44
2022/07/17 02:39:34;;;;;;;5.70;5.20;;;16.80;67.50;;;;;;5076598;28;20595;-44
2022/07/17 02:42:00;;;;;;;4.70;4.40;;;16.70;67.50;;;;;;5076355;28;20264;-45
2022/07/17 02:44:25;;;;;;;5.33;4.90;;;16.70;67.50;;;;;;5075781;28;20235;-47
2022/07/17 02:46:51;;;;;;;6.17;5.60;;;16.70;68.00;;;;;;5074827;28;20582;-44
2022/07/17 02:49:17;;;;;;;5.77;5.20;;;16.70;68.50;;;;;;5075488;28;20864;-43
2022/07/17 02:51:42;;;;;;;6.47;5.87;;;16.60;68.50;;;;;;5075540;28;20417;-43
2022/07/17 02:54:08;;;;;;;6.10;5.60;;;16.60;68.90;;;;;;5074977;28;20195;-49
2022/07/17 02:56:33;;;;;;;5.90;5.20;;;16.60;69.20;;;;;;5075918;28;20550;-43
2022/07/17 02:58:59;;;;;;;6.20;5.60;;;16.60;69.40;;;;;;5075867;28;20216;-43
2022/07/17 03:01:24;;;;;;;5.67;5.00;;;16.60;69.50;;;;;;5075923;28;20184;-45
2022/07/17 03:03:50;;;;;;;5.90;5.30;;;16.60;69.70;;;;;;5075924;28;20188;-46
2022/07/17 03:06:16;;;;;;;5.90;5.30;;;16.60;69.80;;;;;;5076177;28;20569;-46
2022/07/17 03:08:41;;;;;;;5.93;5.37;;;16.50;69.90;;;;;;5075286;28;20711;-45
2022/07/17 03:11:07;;;;;;;5.90;5.30;;;16.50;70.20;;;;;;5077131;28;20192;-45
2022/07/17 03:13:33;;;;;;;5.93;5.33;;;16.50;70.20;;;;;;5078228;28;20280;-45
2022/07/17 03:15:58;;;;;;;8.53;5.93;;;16.50;70.50;;;;;;5079230;28;20587;-43
2022/07/17 03:18:24;;;;;;;6.60;6.00;;;16.40;70.70;;;;;;5079217;28;20280;-42
2022/07/17 03:20:49;;;;;;;5.77;5.27;;;16.40;71.20;;;;;;5079023;28;20212;-44
2022/07/17 03:23:15;;;;;;;6.23;5.53;;;16.30;71.60;;;;;;5078973;28;20187;-46
2022/07/17 03:25:41;;;;;;;5.83;5.33;;;16.40;72.10;;;;;;5078764;28;20175;-44
2022/07/17 03:28:06;;;;;;;6.23;5.63;;;16.30;72.00;;;;;;5078307;28;20186;-43
2022/07/17 03:30:32;;;;;;;5.83;5.27;;;16.30;72.30;;;;;;5078886;28;20239;-44
2022/07/17 03:32:58;;;;;;;5.73;5.23;;;16.30;72.50;;;;;;5078809;28;20257;-43
2022/07/17 03:35:23;;;;;;;5.70;5.20;;;16.30;72.60;;;;;;5079266;28;20219;-44
2022/07/17 03:37:49;;;;;;;6.17;5.57;;;16.30;73.00;;;;;;5079217;28;20205;-43
2022/07/17 03:40:15;;;;;;;6.13;5.50;;;16.30;72.90;;;;;;5079206;28;20203;-43
2022/07/17 03:42:41;;;;;;;6.10;5.60;;;16.20;73.10;;;;;;5079521;28;20245;-46
2022/07/17 03:45:07;;;;;;;6.20;5.60;;;16.20;73.40;;;;;;5079356;28;20445;-45
2022/07/17 03:47:33;;;;;;;6.57;5.63;;;16.30;73.70;;;;;;5077604;28;20273;-45
2022/07/17 03:49:59;;;;;;;6.73;6.17;;;16.20;73.50;;;;;;5079672;28;20855;-45
2022/07/17 03:52:24;;;;;;;6.00;5.40;;;16.30;73.90;;;;;;5078767;28;20199;-44
2022/07/17 03:54:50;;;;;;;6.30;5.80;;;16.20;74.00;;;;;;5078335;28;20214;-44
2022/07/17 03:57:16;;;;;;;5.77;5.27;;;16.20;74.30;;;;;;5078531;28;20274;-45
2022/07/17 03:59:41;;;;;;;6.10;5.60;;;16.30;74.50;;;;;;5078937;28;20300;-46
2022/07/17 04:02:07;;;;;;;5.80;5.20;;;16.30;74.50;;;;;;5077035;28;20229;-44
2022/07/17 04:04:32;;;;;;;5.57;5.07;;;16.30;74.60;;;;;;5079129;28;20281;-46
2022/07/17 04:06:58;;;;;;;5.23;4.83;;;16.30;74.70;;;;;;5079782;28;20170;-43
2022/07/17 04:09:24;;;;;;;6.20;5.70;;;16.30;74.60;;;;;;5078865;28;20171;-43
2022/07/17 04:11:49;;;;;;;5.67;5.13;;;16.30;74.50;;;;;;5078925;28;20183;-44
2022/07/17 04:14:15;;;;;;;5.83;5.23;;;16.30;74.60;;;;;;5079414;28;20548;-45
2022/07/17 04:16:40;;;;;;;5.90;5.40;;;16.40;74.70;;;;;;5078995;28;20208;-45
2022/07/17 04:19:06;;;;;;;5.93;5.43;;;16.40;74.60;;;;;;5079044;28;20206;-45
2022/07/17 04:21:32;;;;;;;6.10;5.50;;;16.40;74.50;;;;;;5077747;28;20178;-44
2022/07/17 04:23:57;;;;;;;7.63;6.30;;;16.40;74.50;;;;;;5078872;28;20178;-45
2022/07/17 04:26:23;;;;;;;6.50;5.90;;;16.40;74.50;;;;;;5077933;28;20613;-44
2022/07/17 04:28:49;;;;;;;6.00;5.50;;;16.50;74.70;;;;;;5059986;28;20202;-45
2022/07/17 04:31:14;;;;;;;5.93;5.43;;;16.50;74.60;;;;;;5077055;28;20242;-44
2022/07/17 04:33:40;;;;;;;5.50;5.00;;;16.50;74.40;;;;;;5078613;28;20194;-46
2022/07/17 04:36:06;;;;;;;6.30;5.70;;;16.60;74.40;;;;;;5079051;28;20186;-42
2022/07/17 04:38:31;;;;;;;6.30;5.80;;;16.70;74.30;;;;;;5078586;28;20214;-44
2022/07/17 04:40:57;;;;;;;5.20;4.70;;;16.70;74.10;;;;;;5078790;28;20180;-43
2022/07/17 04:43:23;;;;;;;5.73;5.23;;;16.80;73.90;;;;;;5077877;28;20257;-42
2022/07/17 04:45:49;;;;;;;6.30;5.73;;;16.90;73.70;;;;;;5078860;28;20256;-43
2022/07/17 04:48:14;;;;;;;6.17;5.67;;;16.90;73.30;;;;;;5078865;28;20242;-43
2022/07/17 04:50:40;;;;;;;7.80;6.10;;;17.00;73.30;;;;;;5078684;28;20789;-45
2022/07/17 04:53:06;;;;;;;6.43;5.93;;;17.00;73.10;;;;;;5078712;28;20205;-43
2022/07/17 04:55:31;;;;;;;6.27;5.70;;;17.10;73.00;;;;;;5078094;28;20563;-44
2022/07/17 04:57:57;;;;;;;6.13;5.53;;;17.10;72.90;;;;;;5077449;28;20265;-43
2022/07/17 05:00:23;;;;;;;5.47;5.03;;;17.20;73.10;;;;;;5076839;28;20567;-44
2022/07/17 05:02:48;;;;;;;6.57;5.67;;;17.20;72.80;;;;;;5077725;28;20267;-45
2022/07/17 05:05:14;;;;;;;6.60;5.60;;;17.30;72.60;;;;;;5077893;28;20181;-42
2022/07/17 05:07:40;;;;;;;6.20;5.70;;;17.30;72.30;;;;;;5076623;28;20248;-42
2022/07/17 05:10:06;;;;;;;7.53;5.90;;;17.40;72.10;;;;;;5076746;28;20539;-42
2022/07/17 05:12:32;;;;;;;6.50;5.90;;;17.40;71.90;;;;;;5077966;28;20202;-42
2022/07/17 05:14:58;;;;;;;6.20;5.70;;;17.50;71.90;;;;;;5076434;28;20529;-42
2022/07/17 05:17:24;;;;;;;6.70;6.10;;;17.50;71.40;;;;;;5075252;28;20196;-42
2022/07/17 05:19:49;;;;;;;6.90;6.30;;;17.60;71.10;;;;;;5075518;28;20448;-41
2022/07/17 05:22:15;;;;;;;6.00;5.50;;;17.60;70.70;;;;;;5076314;28;20328;-42
2022/07/17 05:24:41;;;;;;;6.30;5.70;;;17.70;70.70;;;;;;5076800;28;20562;-42
2022/07/17 05:27:06;;;;;;;6.73;6.13;;;17.70;70.80;;;;;;5074863;28;20176;-43
2022/07/17 05:29:32;;;;;;;7.57;6.80;;;17.70;70.60;;;;;;5077488;28;20194;-43
2022/07/17 05:31:58;;;;;;;6.20;5.60;;;17.80;70.60;;;;;;5077642;28;20581;-45
2022/07/17 05:34:23;;;;;;;6.90;6.30;;;17.80;70.60;;;;;;5072937;28;20201;-43
2022/07/17 05:36:49;;;;;;;6.43;5.83;;;17.90;70.20;;;;;;5056117;28;20182;-42
2022/07/17 05:39:15;;;;;;;6.50;5.87;;;17.90;69.90;;;;;;5054946;28;20206;-43
2022/07/17 05:41:40;;;;;;;7.80;6.17;;;18.00;69.70;;;;;;5054008;28;20179;-46
2022/07/17 05:44:06;;;;;;;7.00;6.30;;;18.10;69.30;;;;;;5053729;28;20241;-42
2022/07/17 05:46:31;;;;;;;6.40;5.90;;;18.20;69.10;;;;;;5053387;28;20172;-41
2022/07/17 05:48:57;;;;;;;8.23;6.33;;;18.30;68.90;;;;;;5053143;28;20193;-43
2022/07/17 05:51:23;;;;;;;7.10;6.40;;;18.40;68.50;;;;;;5054990;28;20186;-42
2022/07/17 05:53:48;;;;;;;6.40;5.80;;;18.40;68.80;;;;;;5055094;28;20480;-43
2022/07/17 05:56:14;;;;;;;6.80;6.20;;;18.50;67.70;;;;;;5055482;28;20180;-42
2022/07/17 05:58:40;;;;;;;6.77;6.23;;;18.60;67.30;;;;;;5056400;28;20223;-43
2022/07/17 06:01:05;;;;;;;7.03;6.43;;;18.70;66.90;;;;;;5055497;28;20170;-43
2022/07/17 06:03:31;;;;;;;6.50;5.90;;;18.90;66.50;;;;;;5056126;28;20182;-44
2022/07/17 06:05:56;;;;;;;5.70;5.20;;;19.00;66.00;;;;;;5056602;28;20168;-45
2022/07/17 06:08:22;;;;;;;6.00;5.40;;;19.10;65.40;;;;;;5056811;28;20198;-44
2022/07/17 06:10:48;;;;;;;6.33;5.83;;;19.20;65.00;;;;;;5057093;28;20267;-44
2022/07/17 06:13:13;;;;;;;6.13;5.50;;;19.40;64.60;;;;;;5057262;28;20273;-44
2022/07/17 06:15:39;;;;;;;6.37;5.70;;;19.50;63.90;;;;;;5057060;28;20172;-42
2022/07/17 06:18:05;;;;;;;6.57;5.70;;;19.60;63.00;;;;;;5057506;28;20182;-44
2022/07/17 06:20:31;;;;;;;6.00;5.50;;;19.60;62.50;;;;;;5056308;28;20207;-43
2022/07/17 06:22:57;;;;;;;6.97;6.33;;;19.70;62.40;;;;;;5055575;28;20592;-44
2022/07/17 06:25:22;;;;;;;6.10;5.60;;;19.80;61.80;;;;;;5055750;28;20173;-42
2022/07/17 06:27:48;;;;;;;5.33;4.93;;;19.80;61.20;;;;;;5056020;28;20442;-44
2022/07/17 06:30:15;;;;;;;5.57;5.00;;;19.90;61.40;;;;;;5055873;28;20171;-43
2022/07/17 06:32:41;;;;;;;6.07;5.50;;;20.00;61.00;;;;;;5055527;28;20255;-43
2022/07/17 06:35:08;;;;;;;6.23;5.67;;;20.20;60.40;;;;;;5055398;28;20410;-43
2022/07/17 06:37:33;;;;;;;5.70;5.10;;;20.40;59.90;;;;;;5056500;28;20435;-43
2022/07/17 06:39:59;;;;;;;5.17;4.67;;;20.50;59.40;;;;;;5055384;28;20893;-44
2022/07/17 06:42:25;;;;;;;6.30;5.80;;;20.70;58.80;;;;;;5056145;28;20438;-44
2022/07/17 06:44:50;;;;;;;4.87;4.33;;;20.90;58.10;;;;;;5056634;28;20505;-43
2022/07/17 06:47:16;;;;;;;5.87;5.27;;;20.90;57.20;;;;;;5061105;28;20204;-45
2022/07/17 06:49:43;;;;;;;5.33;4.87;;;21.00;57.30;;;;;;5059991;28;20254;-45
2022/07/17 06:52:08;;;;;;;5.17;4.77;;;21.10;57.40;;;;;;5059727;28;20195;-44
2022/07/17 06:54:34;;;;;;;4.83;4.37;;;21.30;57.20;;;;;;5059766;28;20449;-43
2022/07/17 06:57:00;;;;;;;5.60;5.07;;;21.50;56.90;;;;;;5059750;28;20238;-43
2022/07/17 06:59:25;;;;;;;4.90;4.50;;;21.70;56.70;;;;;;5058919;28;20311;-44
2022/07/17 07:01:51;;;;;;;5.40;5.00;;;21.90;56.60;;;;;;5057023;28;20263;-44
2022/07/17 07:04:16;;;;;;;6.23;5.67;;;22.00;56.00;;;;;;5055327;28;20699;-43
2022/07/17 07:06:43;;;;;;;5.13;4.50;;;22.10;55.50;;;;;;5056411;28;20588;-42
2022/07/17 07:09:09;;;;;;;4.80;4.30;;;22.30;55.70;;;;;;5057082;28;20468;-43
2022/07/17 07:11:35;;;;;;;5.03;4.53;;;22.40;55.40;;;;;;5058448;28;20503;-43
2022/07/17 07:14:00;;;;;;;5.17;4.70;;;22.60;55.00;;;;;;5057943;28;20427;-44
2022/07/17 07:16:26;;;;;;;4.67;4.27;;;22.80;54.50;;;;;;5058834;28;20266;-44
2022/07/17 07:18:52;;;;;;;5.13;4.63;;;23.00;53.70;;;;;;5058715;28;20199;-42
2022/07/17 07:21:17;;;;;;;5.27;4.87;;;23.10;52.80;;;;;;5057486;28;20234;-43
2022/07/17 07:23:43;;;;;;;5.10;3.97;;;23.30;52.70;;;;;;5057000;28;20266;-43
2022/07/17 07:26:09;;;;;;;3.70;3.30;;;23.50;52.00;;;;;;5056688;28;20178;-47
2022/07/17 07:28:34;;;;;;;5.20;3.43;;;23.70;50.70;;;;;;5058477;28;20201;-44
2022/07/17 07:31:00;;;;;;;4.60;4.20;;;23.80;49.50;;;;;;5056077;28;20298;-43
2022/07/17 07:33:26;;;;;;;3.83;3.53;;;23.90;48.90;;;;;;5056711;28;20188;-44
2022/07/17 07:35:52;;;;;;;3.87;3.57;;;23.90;48.50;;;;;;5054596;28;20264;-45
2022/07/17 07:38:17;;;;;;;4.00;3.70;;;24.00;48.70;;;;;;5053480;28;20530;-43
2022/07/17 07:40:43;;;;;;;4.20;3.90;;;24.10;48.30;;;;;;5054953;28;20434;-42
2022/07/17 07:43:09;;;;;;;4.70;4.30;;;24.30;48.10;;;;;;5054369;28;20173;-42
2022/07/17 07:45:34;;;;;;;3.97;3.67;;;24.60;47.80;;;;;;5054356;28;20307;-43
2022/07/17 07:48:00;;;;;;;4.50;4.10;;;24.80;47.00;;;;;;5053711;28;20179;-45
2022/07/17 07:50:28;;;;;;;6.83;3.80;;;25.00;47.10;;;;;;5053089;28;20224;-46
2022/07/17 07:52:54;;;;;;;3.80;3.50;;;25.00;46.70;;;;;;5053397;28;20567;-43
2022/07/17 07:55:21;;;;;;;5.63;4.10;;;25.10;47.00;;;;;;5053967;28;20464;-46
2022/07/17 07:57:47;;;;;;;3.63;3.33;;;25.40;46.40;;;;;;5053120;28;20497;-47
2022/07/17 08:00:13;;;;;;;4.80;3.50;;;25.40;45.40;;;;;;5055594;28;20536;-45
2022/07/17 08:02:39;;;;;;;3.73;3.43;;;25.40;46.20;;;;;;5056408;28;20631;-45
2022/07/17 08:05:05;;;;;;;3.50;3.20;;;25.70;46.40;;;;;;5056434;28;20405;-43
2022/07/17 08:07:31;;;;;;;3.70;3.40;;;26.10;45.70;;;;;;5058386;28;20194;-45
2022/07/17 08:09:57;;;;;;;3.80;3.50;;;26.50;45.60;;;;;;5056538;28;20558;-44
2022/07/17 08:12:23;;;;;;;3.97;3.27;;;26.90;45.20;;;;;;5054753;28;20436;-45
2022/07/17 08:14:50;;;;;;;3.50;3.20;;;27.20;44.20;;;;;;5053853;28;20937;-44
2022/07/17 08:17:15;;;;;;;3.80;3.50;;;27.40;42.80;;;;;;5054087;28;20190;-44
2022/07/17 08:19:41;;;;;;;4.27;3.60;;;27.40;42.00;;;;;;5053247;28;20719;-44
2022/07/17 08:22:06;;;;;;;3.73;3.43;;;27.50;41.80;;;;;;5053547;28;20209;-44
2022/07/17 08:24:32;;;;;;;3.47;3.23;;;27.30;41.60;;;;;;5054166;28;20173;-44
2022/07/17 08:26:58;;;;;;;3.43;3.13;;;27.10;41.60;;;;;;5056569;28;20182;-44
2022/07/17 08:29:23;;;;;;;4.27;3.80;;;26.70;41.90;;;;;;5057301;28;20610;-45
2022/07/17 08:31:49;;;;;;;6.70;4.27;;;26.50;42.90;;;;;;5057103;28;20230;-46
2022/07/17 08:34:15;;;;;;;3.93;3.63;;;26.40;43.20;;;;;;5056001;28;20184;-47
2022/07/17 08:36:41;;;;;;;3.83;3.50;;;26.40;42.40;;;;;;5056575;28;20472;-43
2022/07/17 08:39:07;;;;;;;6.63;3.93;;;26.40;42.80;;;;;;5055898;28;20469;-43
2022/07/17 08:41:37;;;;;;;4.60;4.17;;;26.70;43.20;;;;;;5054722;28;20882;-45
2022/07/17 08:44:04;;;;;;;4.70;3.53;;;27.00;41.90;;;;;;5054563;28;20420;-46
2022/07/17 08:46:30;;;;;;;4.13;3.47;;;27.10;41.40;;;;;;5054787;28;20797;-44
2022/07/17 08:49:02;;;;;;;3.80;3.50;;;27.10;41.60;;;;;;5052658;28;20432;-43
2022/07/17 08:51:28;;;;;;;4.73;4.07;;;27.30;42.40;;;;;;5057055;28;20178;-42
2022/07/17 08:53:54;;;;;;;4.83;3.93;;;27.70;41.10;;;;;;5056997;28;20436;-43
2022/07/17 08:56:20;;;;;;;4.50;4.10;;;28.00;40.40;;;;;;5057179;28;20645;-45
2022/07/17 08:58:46;;;;;;;3.80;3.50;;;28.10;40.40;;;;;;5057738;28;20525;-45
2022/07/17 09:01:12;;;;;;;4.37;3.97;;;28.30;40.70;;;;;;5056833;28;20542;-43
2022/07/17 09:03:41;;;;;;;6.80;4.13;;;28.70;40.30;;;;;;5056505;28;20434;-45
2022/07/17 09:06:20;;;;;;;5.33;4.50;;;29.10;40.80;;;;;;5057046;28;20444;-43
2022/07/17 09:08:46;;;;;;;9.50;4.17;;;29.60;39.90;;;;;;5056366;28;20519;-44
2022/07/17 09:11:12;;;;;;;7.50;4.67;;;29.90;39.60;;;;;;5055675;28;20566;-45
2022/07/17 09:13:41;;;;;;;6.47;4.40;;;30.20;39.40;;;;;;5056243;28;20189;-45
2022/07/17 09:16:09;;;;;;;4.87;3.67;;;30.50;38.60;;;;;;5054614;28;20426;-45
2022/07/17 09:18:49;;;;;;;4.43;3.97;;;30.60;37.10;;;;;;5072981;28;20409;-45
2022/07/17 09:21:23;;;;;;;4.07;3.77;;;30.90;37.70;;;;;;5056203;28;20414;-45
2022/07/17 09:24:06;;;;;;;4.10;3.70;;;31.20;37.60;;;;;;5055076;28;20441;-44
2022/07/17 09:26:35;;;;;;;4.13;3.70;;;31.40;36.80;;;;;;5055090;28;20411;-44
2022/07/17 09:29:02;;;;;;;4.10;3.10;;;31.70;36.10;;;;;;5054300;28;20692;-45
2022/07/17 09:31:32;;;;;;;3.87;3.57;;;31.70;34.60;;;;;;5052452;28;20479;-45
2022/07/17 09:33:58;;;;;;;4.00;3.70;;;31.70;35.50;;;;;;5051066;28;20417;-45
2022/07/17 09:36:24;;;;;;;4.27;3.60;;;31.70;34.30;;;;;;5054773;28;20497;-43
2022/07/17 09:38:55;;;;;;;4.87;3.50;;;31.90;34.80;;;;;;5055063;28;20957;-47
2022/07/17 09:41:22;;;;;;;4.53;4.23;;;32.20;33.70;;;;;;5054911;28;20443;-44
2022/07/17 09:44:00;;;;;;;3.90;3.60;;;32.20;34.50;;;;;;5056800;28;20434;-47
2022/07/17 09:46:31;;;;;;;3.67;3.37;;;32.40;34.30;;;;;;5055803;28;20404;-46
2022/07/17 09:48:59;;;;;;;4.87;3.63;;;32.60;33.70;;;;;;5054552;28;20426;-47
2022/07/17 09:51:27;;;;;;;3.53;3.23;;;32.90;33.50;;;;;;5054401;28;20395;-45
2022/07/17 09:53:56;;;;;;;3.70;3.40;;;33.00;33.80;;;;;;5051149;28;20705;-45
2022/07/17 09:56:24;;;;;;;4.57;4.13;;;33.20;33.90;;;;;;5053451;28;20460;-45
2022/07/17 09:59:04;;;;;;;3.73;3.43;;;33.30;32.40;;;;;;5053677;28;20493;-46
2022/07/17 10:01:30;;;;;;;3.93;3.60;;;33.10;31.40;;;;;;5055178;28;20493;-49
2022/07/17 10:03:56;;;;;;;3.13;2.93;;;33.10;32.50;;;;;;5056044;28;20451;-49
2022/07/17 10:06:23;;;;;;;3.17;2.97;;;33.20;32.40;;;;;;5055159;28;20419;-50
2022/07/17 10:08:51;;;;;;;3.60;3.30;;;33.30;32.80;;;;;;5055427;28;20420;-47
2022/07/17 10:11:20;;;;;;;4.20;3.80;;;33.60;33.20;;;;;;5055898;28;20383;-46
2022/07/17 10:13:46;;;;;;;3.97;3.50;;;33.90;32.00;;;;;;5054751;28;20428;-46
2022/07/17 10:16:13;;;;;;;4.03;3.73;;;33.90;32.20;;;;;;5055850;28;20402;-47
2022/07/17 10:18:41;;;;;;;4.60;4.20;;;34.00;33.00;;;;;;5056110;28;20460;-47
2022/07/17 10:21:11;;;;;;;3.50;3.20;;;34.10;30.80;;;;;;5057484;28;20516;-48
2022/07/17 10:23:37;;;;;;;3.70;3.40;;;34.10;31.50;;;;;;5058630;28;20391;-48
2022/07/17 10:26:03;;;;;;;3.60;3.30;;;34.30;31.00;;;;;;5058019;28;20396;-46
2022/07/17 10:28:39;;;;;;;3.90;3.60;;;34.40;30.50;;;;;;5058096;28;20323;-46
2022/07/17 10:31:06;;;;;;;3.53;3.23;;;34.50;30.10;;;;;;5058534;28;20343;-48
2022/07/17 10:33:31;;;;;;;3.73;3.43;;;34.60;30.10;;;;;;5059033;28;20421;-45
2022/07/17 10:35:59;;;;;;;3.07;2.87;;;34.80;30.00;;;;;;5059216;28;20850;-46
2022/07/17 10:38:26;;;;;;;3.57;3.30;;;35.00;29.90;;;;;;5059200;28;20165;-46
2022/07/17 10:41:02;;;;;;;3.67;3.23;;;35.30;29.50;;;;;;5058893;28;20446;-48
2022/07/17 10:43:43;;;;;;;4.10;3.70;;;35.60;29.00;;;;;;5058447;28;20549;-47
2022/07/17 10:46:09;;;;;;;3.57;3.27;;;35.90;29.80;;;;;;5057693;28;20414;-46
2022/07/17 10:48:35;;;;;;;5.43;3.10;;;36.20;28.50;;;;;;5041558;28;20473;-48
2022/07/17 10:51:01;;;;;;;4.00;2.77;;;36.10;29.10;;;;;;5059139;28;20170;-47
2022/07/17 10:53:35;;;;;;;3.00;2.80;;;36.10;29.10;;;;;;5060053;28;20775;-49
2022/07/17 10:56:04;;;;;;;3.20;3.00;;;36.20;27.80;;;;;;5060012;28;20414;-46
2022/07/17 10:58:37;;;;;;;3.13;2.83;;;36.30;28.40;;;;;;5058737;28;20405;-48
2022/07/17 11:01:02;;;;;;;3.00;2.70;;;35.90;26.90;;;;;;5058917;28;20410;-45
2022/07/17 11:03:29;;;;;;;2.80;2.60;;;35.30;27.90;;;;;;5058470;28;20464;-49
2022/07/17 11:06:11;;;;;;;3.80;3.40;;;35.40;29.10;;;;;;5057925;28;20268;-48
2022/07/17 11:08:56;;;;;;;7.00;3.23;;;35.50;28.70;;;;;;5057991;28;20396;-49
2022/07/17 11:11:44;;;;;;;3.17;2.97;;;35.40;27.70;;;;;;5058927;28;20449;-48
2022/07/17 11:14:10;;;;;;;3.17;2.97;;;35.10;29.10;;;;;;5059311;28;20429;-47
2022/07/17 11:16:37;;;;;;;2.77;2.57;;;35.60;28.50;;;;;;5059989;28;20423;-48
2022/07/17 11:19:03;;;;;;;3.03;2.70;;;35.70;28.10;;;;;;5058102;28;20492;-48
2022/07/17 11:21:29;;;;;;;3.70;3.40;;;35.70;27.20;;;;;;5057509;28;20484;-46
2022/07/17 11:23:56;;;;;;;6.77;4.10;;;35.00;27.70;;;;;;5058083;28;20470;-49
2022/07/17 11:26:22;;;;;;;3.53;3.23;;;35.00;29.10;;;;;;5057621;28;20679;-46
2022/07/17 11:28:49;;;;;;;3.40;3.10;;;35.30;28.10;;;;;;5056709;28;20418;-48
2022/07/17 11:31:23;;;;;;;3.03;2.63;;;35.80;28.70;;;;;;5057261;28;20253;-47
2022/07/17 11:33:53;;;;;;;3.10;2.80;;;35.90;26.00;;;;;;5057872;28;20438;-47
2022/07/17 11:36:33;;;;;;;2.60;2.40;;;36.10;26.80;;;;;;5057904;28;20411;-46
2022/07/17 11:39:00;;;;;;;3.40;2.53;;;36.60;27.70;;;;;;5057260;28;20444;-46
2022/07/17 11:41:33;;;;;;;2.93;2.73;;;37.10;27.00;;;;;;5058451;28;20388;-47
2022/07/17 11:43:58;;;;;;;3.40;3.10;;;37.40;26.10;;;;;;5057941;28;20691;-47
2022/07/17 11:46:25;;;;;;;3.30;3.00;;;37.50;26.40;;;;;;5058602;28;20488;-46
2022/07/17 11:48:51;;;;;;;3.00;2.80;;;37.30;26.20;;;;;;5056259;28;20456;-46
2022/07/17 11:51:18;;;;;;;3.00;2.80;;;36.50;26.70;;;;;;5055643;28;20425;-47
2022/07/17 11:53:43;;;;;;;3.50;2.57;;;36.30;27.90;;;;;;5055880;28;20395;-47
2022/07/17 11:56:19;;;;;;;3.20;2.50;;;36.40;26.70;;;;;;5054897;28;20878;-47
2022/07/17 11:58:47;;;;;;;3.43;3.13;;;36.80;26.30;;;;;;5055761;28;20195;-47
2022/07/17 12:01:13;;;;;;;5.23;4.93;;;37.10;26.80;;;;;;5056455;28;20515;-46
2022/07/17 12:03:39;;;;;;;5.43;4.97;;;37.70;27.00;;;;;;5057492;28;20836;-47
2022/07/17 12:06:04;;;;;;;3.57;3.27;;;38.10;26.80;;;;;;5057293;28;20400;-48
2022/07/17 12:08:30;;;;;;;2.70;2.50;;;38.50;26.10;;;;;;5058304;28;20632;-47
2022/07/17 12:11:03;;;;;;;3.23;2.93;;;38.80;25.70;;;;;;5056207;28;20709;-45
2022/07/17 12:13:46;;;;;;;3.20;2.73;;;39.30;25.30;;;;;;5038059;28;20189;-46
2022/07/17 12:16:29;;;;;;;3.10;2.37;;;39.60;24.90;;;;;;5055444;28;20454;-49
2022/07/17 12:19:16;;;;;;;2.90;2.70;;;39.70;23.70;;;;;;5055272;28;20469;-47
2022/07/17 12:21:55;;;;;;;2.77;2.47;;;39.10;23.60;;;;;;5056564;28;20423;-47
2022/07/17 12:24:37;;;;;;;3.50;3.10;;;39.00;24.60;;;;;;5055050;28;20541;-47
2022/07/17 12:27:05;;;;;;;3.67;3.07;;;38.80;24.70;;;;;;5057915;28;20511;-48
2022/07/17 12:29:31;;;;;;;3.03;2.73;;;39.10;25.60;;;;;;5055862;28;20414;-48
2022/07/17 12:32:11;;;;;;;3.00;2.80;;;39.30;24.50;;;;;;5056205;28;20554;-51
2022/07/17 12:34:49;;;;;;;3.60;3.03;;;39.10;24.90;;;;;;5056326;28;20440;-48
2022/07/17 12:37:19;;;;;;;3.10;2.80;;;39.20;25.50;;;;;;5056751;28;20479;-49
2022/07/17 12:39:47;;;;;;;5.63;3.30;;;39.10;24.30;;;;;;5055264;28;20921;-48
2022/07/17 12:42:13;;;;;;;2.97;2.67;;;39.00;24.50;;;;;;5055797;28;20421;-50
2022/07/17 12:44:39;;;;;;;2.77;2.57;;;38.70;24.40;;;;;;5054406;28;20422;-48
2022/07/17 12:47:05;;;;;;;2.70;2.50;;;38.60;24.60;;;;;;5056339;28;20390;-49
2022/07/17 12:49:31;;;;;;;3.03;2.73;;;38.80;25.10;;;;;;5056091;28;20428;-47